Philadelphia, Pennsylvania
Traffic Map
Current Weather Conditions
Philadelphia, Pennsylvania
Overcast
Overcast
35°
Feels Like: 27°
Wind Chill: 27° Ceiling: 4800
Heat Index: 35° Visibility: 10mi
Dew Point: 31° Wind: 10mph
Humidity: 85% Direction: 190° (S)
Pressure: 29.99in Gusts: 0mph
Raw Report DataKPHL 300954Z 19009KT 10SM BKN048 BKN070 OVC090 02/M01 A2999 RMK AO2 SLP154 T00171006
Traffic Incident Summary
Active as of:
Severity:
Category:
InformationThere was an issue retrieving the traffic information for this location. Please try a different location or try again shortly.
Advertisements
Track Severe Weather on mobile